LiveATC.Net - Listen to live air traffic control over the Internet!


ICAO: ROTM  IATA:   Airport: MCAS Futenma
City: Okinawa
Country: Japan   Continent: Asia
ROTM METAR Weather: ROTM 171356Z 27003KT 7SM BKN015 BKN034 25/24 A2997 RMK AO2 RAE55 SLP133 P0000 T02500239 $
ROTM Flight Activity (FlightAware)

ROTM Gnd/Twr
Feed Status: UP   Listeners: 0
Listen in your browser - HTML5 player (in browser, HTML5)
Click here to listen with your own player (launches your MP3 player)
ROTM Gnd/Twr Audio Archives

NOTICE

Unauthorized use prohibited. See LiveATC.net Terms of Service


Airport/ARTCC Code
Frequency Search
(e.g., 124.400, 128.75)
Site-wide search
 


Browse LiveATC Feeds
Top 50 LiveATC Feeds
LiveATC Feed Map
Bad Weather Areas

LiveATC FAQ
Offer LiveATC feed
Contact LiveATC.net
Press Inquiries

LiveATC on iPhone
LiveATC on Android

Windows Phone
Windows 8/10

LiveATC Mobile
(Mobile browser)

ATC Audio Archives
Interesting Recordings

LiveATC Forums


Home Page
About LiveATC.net
Make a Donation
Terms of Use
Privacy Policy

Canadian Air Freqs

AIRMETs/SIGMETs

FAA Airport Status
Nat'l Airspace Status
Arrival Demand Charts


Server Software By:
Icecast.org
Liquidsoap